Terminal Aerodrome Forecast
Issued by NWS

Home | Current Version | Previous Version | Text Only | Print | Product List | Glossary On
Versions: 1 2 3 4 5 6 7 8 9 10 11 12
000
FTUS45 KPIH 041120
TAFSUN
TAF
KSUN 041120Z 0412/0512 31008KT P6SM FEW060
     FM041600 16007KT P6SM VCSH SCT080
     FM042000 25015KT P6SM VCTS FEW080CB
     FM050000 25015KT P6SM VCTS BKN090CB
     FM050400 30008KT P6SM VCTS BKN090CB OVC140
      AMD LTD TO CLD VIS AND WIND TIL 041300=

USA.gov is the U.S. government's official web portal to all federal, state and local government web resources and services.